sensor_id;sensor_type;location;lat;lon;timestamp;P1;durP1;ratioP1;P2;durP2;ratioP2
47153;SDS011;32907;41.412;2.164;2023-03-01T00:01:44;6.40;;;3.47;;
47153;SDS011;32907;41.412;2.164;2023-03-01T00:04:11;8.68;;;3.67;;
47153;SDS011;32907;41.412;2.164;2023-03-01T00:06:40;5.50;;;3.92;;
47153;SDS011;32907;41.412;2.164;2023-03-01T00:09:10;4.38;;;3.20;;
47153;SDS011;32907;41.412;2.164;2023-03-01T00:11:39;4.63;;;3.20;;
47153;SDS011;32907;41.412;2.164;2023-03-01T00:14:07;5.47;;;3.55;;
47153;SDS011;32907;41.412;2.164;2023-03-01T00:16:39;4.35;;;3.40;;
47153;SDS011;32907;41.412;2.164;2023-03-01T00:19:15;5.80;;;3.22;;
47153;SDS011;32907;41.412;2.164;2023-03-01T00:21:45;5.63;;;2.87;;
47153;SDS011;32907;41.412;2.164;2023-03-01T00:24:13;5.60;;;3.25;;
47153;SDS011;32907;41.412;2.164;2023-03-01T00:26:42;4.85;;;2.65;;
47153;SDS011;32907;41.412;2.164;2023-03-01T00:29:10;4.63;;;2.90;;
47153;SDS011;32907;41.412;2.164;2023-03-01T00:31:38;5.18;;;2.80;;
47153;SDS011;32907;41.412;2.164;2023-03-01T00:34:06;5.18;;;2.72;;
47153;SDS011;32907;41.412;2.164;2023-03-01T00:36:35;6.18;;;3.05;;
47153;SDS011;32907;41.412;2.164;2023-03-01T00:39:05;6.30;;;2.70;;
47153;SDS011;32907;41.412;2.164;2023-03-01T00:41:37;4.95;;;2.92;;
47153;SDS011;32907;41.412;2.164;2023-03-01T00:44:08;4.57;;;2.72;;
47153;SDS011;32907;41.412;2.164;2023-03-01T00:46:36;4.40;;;2.95;;
47153;SDS011;32907;41.412;2.164;2023-03-01T00:49:04;3.78;;;2.60;;
47153;SDS011;32907;41.412;2.164;2023-03-01T00:51:32;4.07;;;2.83;;
47153;SDS011;32907;41.412;2.164;2023-03-01T00:54:02;5.75;;;2.95;;
47153;SDS011;32907;41.412;2.164;2023-03-01T00:56:30;7.05;;;2.70;;
47153;SDS011;32907;41.412;2.164;2023-03-01T00:58:59;5.07;;;2.42;;
47153;SDS011;32907;41.412;2.164;2023-03-01T01:01:28;6.43;;;3.30;;
47153;SDS011;32907;41.412;2.164;2023-03-01T01:04:03;4.50;;;2.60;;
47153;SDS011;32907;41.412;2.164;2023-03-01T01:06:35;4.88;;;2.30;;
47153;SDS011;32907;41.412;2.164;2023-03-01T01:09:05;4.13;;;2.40;;
47153;SDS011;32907;41.412;2.164;2023-03-01T01:11:34;4.28;;;2.60;;
47153;SDS011;32907;41.412;2.164;2023-03-01T01:14:03;3.65;;;2.40;;
47153;SDS011;32907;41.412;2.164;2023-03-01T01:16:33;5.97;;;2.38;;
47153;SDS011;32907;41.412;2.164;2023-03-01T01:19:02;4.00;;;2.50;;
47153;SDS011;32907;41.412;2.164;2023-03-01T01:21:30;5.50;;;2.40;;
47153;SDS011;32907;41.412;2.164;2023-03-01T01:23:58;4.30;;;2.75;;
47153;SDS011;32907;41.412;2.164;2023-03-01T01:26:28;5.65;;;2.90;;
47153;SDS011;32907;41.412;2.164;2023-03-01T01:29:00;5.15;;;2.53;;
47153;SDS011;32907;41.412;2.164;2023-03-01T01:31:30;5.22;;;2.85;;
47153;SDS011;32907;41.412;2.164;2023-03-01T01:34:00;4.35;;;2.33;;
47153;SDS011;32907;41.412;2.164;2023-03-01T01:36:30;3.72;;;2.58;;
47153;SDS011;32907;41.412;2.164;2023-03-01T01:39:01;5.65;;;3.00;;
47153;SDS011;32907;41.412;2.164;2023-03-01T01:41:30;4.50;;;2.10;;
47153;SDS011;32907;41.412;2.164;2023-03-01T01:46:57;4.43;;;2.10;;
47153;SDS011;32907;41.412;2.164;2023-03-01T01:52:01;3.10;;;1.92;;
47153;SDS011;32907;41.412;2.164;2023-03-01T01:55:14;2.72;;;1.90;;
47153;SDS011;32907;41.412;2.164;2023-03-01T01:57:25;2.55;;;1.90;;
47153;SDS011;32907;41.412;2.164;2023-03-01T02:00:04;3.55;;;2.20;;
47153;SDS011;32907;41.412;2.164;2023-03-01T02:02:41;4.70;;;2.00;;
47153;SDS011;32907;41.412;2.164;2023-03-01T02:08:13;2.83;;;1.80;;
47153;SDS011;32907;41.412;2.164;2023-03-01T02:10:43;3.17;;;1.70;;
47153;SDS011;32907;41.412;2.164;2023-03-01T02:13:12;2.78;;;1.80;;
47153;SDS011;32907;41.412;2.164;2023-03-01T02:15:40;3.35;;;1.75;;
47153;SDS011;32907;41.412;2.164;2023-03-01T02:18:12;4.60;;;1.92;;
47153;SDS011;32907;41.412;2.164;2023-03-01T02:23:30;3.83;;;1.88;;
47153;SDS011;32907;41.412;2.164;2023-03-01T02:26:09;2.58;;;1.88;;
47153;SDS011;32907;41.412;2.164;2023-03-01T02:28:48;3.40;;;2.08;;
47153;SDS011;32907;41.412;2.164;2023-03-01T02:31:18;3.67;;;2.00;;
47153;SDS011;32907;41.412;2.164;2023-03-01T02:34:06;2.45;;;1.70;;
47153;SDS011;32907;41.412;2.164;2023-03-01T02:36:37;3.20;;;1.83;;
47153;SDS011;32907;41.412;2.164;2023-03-01T02:39:11;4.18;;;1.55;;
47153;SDS011;32907;41.412;2.164;2023-03-01T02:41:47;3.42;;;1.63;;
47153;SDS011;32907;41.412;2.164;2023-03-01T02:44:17;3.88;;;1.80;;
47153;SDS011;32907;41.412;2.164;2023-03-01T02:46:47;5.13;;;1.67;;
47153;SDS011;32907;41.412;2.164;2023-03-01T02:49:22;3.35;;;1.80;;
47153;SDS011;32907;41.412;2.164;2023-03-01T02:54:50;8.60;;;2.05;;
47153;SDS011;32907;41.412;2.164;2023-03-01T02:57:26;3.03;;;1.73;;
47153;SDS011;32907;41.412;2.164;2023-03-01T02:59:56;5.32;;;2.03;;
47153;SDS011;32907;41.412;2.164;2023-03-01T03:02:28;3.40;;;1.58;;
47153;SDS011;32907;41.412;2.164;2023-03-01T03:05:22;2.72;;;1.73;;
47153;SDS011;32907;41.412;2.164;2023-03-01T03:07:56;2.88;;;1.48;;
47153;SDS011;32907;41.412;2.164;2023-03-01T03:12:57;3.00;;;1.60;;
47153;SDS011;32907;41.412;2.164;2023-03-01T03:15:29;3.88;;;1.63;;
47153;SDS011;32907;41.412;2.164;2023-03-01T03:17:57;3.50;;;1.73;;
47153;SDS011;32907;41.412;2.164;2023-03-01T03:20:27;3.53;;;2.10;;
47153;SDS011;32907;41.412;2.164;2023-03-01T03:22:56;3.28;;;1.95;;
47153;SDS011;32907;41.412;2.164;2023-03-01T03:25:26;2.83;;;1.73;;
47153;SDS011;32907;41.412;2.164;2023-03-01T03:27:58;4.03;;;2.00;;
47153;SDS011;32907;41.412;2.164;2023-03-01T03:30:30;2.70;;;1.65;;
47153;SDS011;32907;41.412;2.164;2023-03-01T03:32:59;3.13;;;1.98;;
47153;SDS011;32907;41.412;2.164;2023-03-01T03:35:31;3.17;;;1.75;;
47153;SDS011;32907;41.412;2.164;2023-03-01T03:38:03;3.17;;;1.73;;
47153;SDS011;32907;41.412;2.164;2023-03-01T03:40:34;4.65;;;2.00;;
47153;SDS011;32907;41.412;2.164;2023-03-01T03:43:05;3.88;;;1.73;;
47153;SDS011;32907;41.412;2.164;2023-03-01T03:45:39;3.03;;;1.80;;
47153;SDS011;32907;41.412;2.164;2023-03-01T03:48:08;3.80;;;2.10;;
47153;SDS011;32907;41.412;2.164;2023-03-01T03:50:37;2.97;;;1.67;;
47153;SDS011;32907;41.412;2.164;2023-03-01T03:53:07;4.18;;;1.90;;
47153;SDS011;32907;41.412;2.164;2023-03-01T03:55:38;3.28;;;1.80;;
47153;SDS011;32907;41.412;2.164;2023-03-01T03:58:07;4.25;;;1.73;;
47153;SDS011;32907;41.412;2.164;2023-03-01T04:00:40;2.92;;;1.60;;
47153;SDS011;32907;41.412;2.164;2023-03-01T04:03:10;2.33;;;1.83;;
47153;SDS011;32907;41.412;2.164;2023-03-01T04:05:40;2.05;;;1.40;;
47153;SDS011;32907;41.412;2.164;2023-03-01T04:08:09;2.67;;;1.80;;
47153;SDS011;32907;41.412;2.164;2023-03-01T04:10:40;2.25;;;1.50;;
47153;SDS011;32907;41.412;2.164;2023-03-01T04:13:12;4.93;;;1.90;;
47153;SDS011;32907;41.412;2.164;2023-03-01T04:15:41;3.50;;;1.65;;
47153;SDS011;32907;41.412;2.164;2023-03-01T04:18:13;1.95;;;1.45;;
47153;SDS011;32907;41.412;2.164;2023-03-01T04:20:43;2.10;;;1.58;;
47153;SDS011;32907;41.412;2.164;2023-03-01T04:23:14;2.80;;;1.60;;
47153;SDS011;32907;41.412;2.164;2023-03-01T04:25:47;3.83;;;2.00;;
47153;SDS011;32907;41.412;2.164;2023-03-01T04:28:23;2.45;;;1.40;;
47153;SDS011;32907;41.412;2.164;2023-03-01T04:30:55;3.50;;;1.75;;
47153;SDS011;32907;41.412;2.164;2023-03-01T04:33:27;3.88;;;1.98;;
47153;SDS011;32907;41.412;2.164;2023-03-01T04:35:55;3.08;;;1.83;;
47153;SDS011;32907;41.412;2.164;2023-03-01T04:38:26;3.33;;;1.83;;
47153;SDS011;32907;41.412;2.164;2023-03-01T04:40:54;2.85;;;1.73;;
47153;SDS011;32907;41.412;2.164;2023-03-01T04:43:21;2.72;;;1.58;;
47153;SDS011;32907;41.412;2.164;2023-03-01T04:45:49;4.47;;;2.03;;
47153;SDS011;32907;41.412;2.164;2023-03-01T04:48:18;4.60;;;1.70;;
47153;SDS011;32907;41.412;2.164;2023-03-01T04:50:45;3.08;;;1.85;;
47153;SDS011;32907;41.412;2.164;2023-03-01T04:53:13;2.97;;;1.63;;
47153;SDS011;32907;41.412;2.164;2023-03-01T04:55:41;4.10;;;2.33;;
47153;SDS011;32907;41.412;2.164;2023-03-01T04:58:09;4.55;;;2.33;;
47153;SDS011;32907;41.412;2.164;2023-03-01T05:00:37;3.03;;;1.80;;
47153;SDS011;32907;41.412;2.164;2023-03-01T05:03:06;2.67;;;1.58;;
47153;SDS011;32907;41.412;2.164;2023-03-01T05:05:37;2.45;;;1.80;;
47153;SDS011;32907;41.412;2.164;2023-03-01T05:08:06;3.05;;;1.80;;
47153;SDS011;32907;41.412;2.164;2023-03-01T05:10:35;3.22;;;1.77;;
47153;SDS011;32907;41.412;2.164;2023-03-01T05:13:04;3.85;;;2.20;;
47153;SDS011;32907;41.412;2.164;2023-03-01T05:15:33;3.67;;;1.90;;
47153;SDS011;32907;41.412;2.164;2023-03-01T05:18:03;4.57;;;1.77;;
47153;SDS011;32907;41.412;2.164;2023-03-01T05:20:34;6.50;;;2.10;;
47153;SDS011;32907;41.412;2.164;2023-03-01T05:23:03;4.03;;;1.80;;
47153;SDS011;32907;41.412;2.164;2023-03-01T05:25:33;3.00;;;1.80;;
47153;SDS011;32907;41.412;2.164;2023-03-01T05:28:02;4.25;;;1.98;;
47153;SDS011;32907;41.412;2.164;2023-03-01T05:30:33;3.05;;;2.00;;
47153;SDS011;32907;41.412;2.164;2023-03-01T05:33:02;3.30;;;1.88;;
47153;SDS011;32907;41.412;2.164;2023-03-01T05:35:31;5.20;;;2.22;;
47153;SDS011;32907;41.412;2.164;2023-03-01T05:38:00;4.35;;;2.28;;
47153;SDS011;32907;41.412;2.164;2023-03-01T05:40:27;4.55;;;2.10;;
47153;SDS011;32907;41.412;2.164;2023-03-01T05:42:57;4.07;;;1.88;;
47153;SDS011;32907;41.412;2.164;2023-03-01T05:45:26;4.72;;;2.30;;
47153;SDS011;32907;41.412;2.164;2023-03-01T05:47:57;5.78;;;2.97;;
47153;SDS011;32907;41.412;2.164;2023-03-01T05:50:26;6.43;;;3.85;;
47153;SDS011;32907;41.412;2.164;2023-03-01T05:53:04;5.57;;;3.83;;
47153;SDS011;32907;41.412;2.164;2023-03-01T05:55:40;5.35;;;3.28;;
47153;SDS011;32907;41.412;2.164;2023-03-01T05:58:10;6.70;;;4.20;;
47153;SDS011;32907;41.412;2.164;2023-03-01T06:00:41;6.60;;;4.20;;
47153;SDS011;32907;41.412;2.164;2023-03-01T06:03:11;5.50;;;3.45;;
47153;SDS011;32907;41.412;2.164;2023-03-01T06:05:40;6.15;;;3.55;;
47153;SDS011;32907;41.412;2.164;2023-03-01T06:08:11;8.82;;;5.75;;
47153;SDS011;32907;41.412;2.164;2023-03-01T06:10:39;11.25;;;7.47;;
47153;SDS011;32907;41.412;2.164;2023-03-01T06:13:08;8.82;;;6.47;;
47153;SDS011;32907;41.412;2.164;2023-03-01T06:15:39;7.63;;;5.38;;
47153;SDS011;32907;41.412;2.164;2023-03-01T06:18:08;7.18;;;4.78;;
47153;SDS011;32907;41.412;2.164;2023-03-01T06:20:36;6.55;;;3.67;;
47153;SDS011;32907;41.412;2.164;2023-03-01T06:23:04;5.43;;;3.78;;
47153;SDS011;32907;41.412;2.164;2023-03-01T06:25:31;25.98;;;7.53;;
47153;SDS011;32907;41.412;2.164;2023-03-01T06:28:00;18.55;;;6.10;;
47153;SDS011;32907;41.412;2.164;2023-03-01T06:30:28;12.45;;;5.13;;
47153;SDS011;32907;41.412;2.164;2023-03-01T06:32:56;10.57;;;4.78;;
47153;SDS011;32907;41.412;2.164;2023-03-01T06:35:28;9.70;;;4.82;;
47153;SDS011;32907;41.412;2.164;2023-03-01T06:38:01;7.57;;;4.45;;
47153;SDS011;32907;41.412;2.164;2023-03-01T06:40:31;32.50;;;10.73;;
47153;SDS011;32907;41.412;2.164;2023-03-01T06:43:02;15.45;;;5.40;;
47153;SDS011;32907;41.412;2.164;2023-03-01T06:45:30;10.88;;;4.47;;
47153;SDS011;32907;41.412;2.164;2023-03-01T06:48:02;9.77;;;4.35;;
47153;SDS011;32907;41.412;2.164;2023-03-01T06:50:35;6.28;;;3.55;;
47153;SDS011;32907;41.412;2.164;2023-03-01T06:53:14;6.90;;;3.15;;
47153;SDS011;32907;41.412;2.164;2023-03-01T06:55:43;10.35;;;3.65;;
47153;SDS011;32907;41.412;2.164;2023-03-01T06:58:11;2.90;;;2.20;;
47153;SDS011;32907;41.412;2.164;2023-03-01T07:00:39;5.13;;;2.47;;
47153;SDS011;32907;41.412;2.164;2023-03-01T07:03:08;5.18;;;2.60;;
47153;SDS011;32907;41.412;2.164;2023-03-01T07:05:37;9.52;;;2.90;;
47153;SDS011;32907;41.412;2.164;2023-03-01T07:08:04;4.07;;;2.45;;
47153;SDS011;32907;41.412;2.164;2023-03-01T07:10:33;3.58;;;2.45;;
47153;SDS011;32907;41.412;2.164;2023-03-01T07:13:01;3.70;;;2.25;;
47153;SDS011;32907;41.412;2.164;2023-03-01T07:15:29;3.72;;;2.30;;
47153;SDS011;32907;41.412;2.164;2023-03-01T07:17:57;4.95;;;2.60;;
47153;SDS011;32907;41.412;2.164;2023-03-01T07:20:25;5.55;;;2.75;;
47153;SDS011;32907;41.412;2.164;2023-03-01T07:22:55;5.35;;;2.80;;
47153;SDS011;32907;41.412;2.164;2023-03-01T07:25:25;4.68;;;2.70;;
47153;SDS011;32907;41.412;2.164;2023-03-01T07:27:55;3.50;;;2.50;;
47153;SDS011;32907;41.412;2.164;2023-03-01T07:30:22;3.75;;;2.72;;
47153;SDS011;32907;41.412;2.164;2023-03-01T07:32:54;5.97;;;3.10;;
47153;SDS011;32907;41.412;2.164;2023-03-01T07:35:24;6.43;;;2.97;;
47153;SDS011;32907;41.412;2.164;2023-03-01T07:37:54;6.78;;;3.17;;
47153;SDS011;32907;41.412;2.164;2023-03-01T07:40:22;4.80;;;2.90;;
47153;SDS011;32907;41.412;2.164;2023-03-01T07:42:56;4.38;;;2.95;;
47153;SDS011;32907;41.412;2.164;2023-03-01T07:45:25;7.03;;;2.75;;
47153;SDS011;32907;41.412;2.164;2023-03-01T07:47:54;6.30;;;2.90;;
47153;SDS011;32907;41.412;2.164;2023-03-01T07:50:22;4.60;;;2.95;;
47153;SDS011;32907;41.412;2.164;2023-03-01T07:52:51;3.85;;;2.58;;
47153;SDS011;32907;41.412;2.164;2023-03-01T07:55:20;8.27;;;3.13;;
47153;SDS011;32907;41.412;2.164;2023-03-01T07:57:48;7.80;;;3.28;;
47153;SDS011;32907;41.412;2.164;2023-03-01T08:00:16;5.38;;;2.60;;
47153;SDS011;32907;41.412;2.164;2023-03-01T08:02:44;5.15;;;2.95;;
47153;SDS011;32907;41.412;2.164;2023-03-01T08:05:12;6.43;;;3.15;;
47153;SDS011;32907;41.412;2.164;2023-03-01T08:07:40;8.70;;;3.20;;
47153;SDS011;32907;41.412;2.164;2023-03-01T08:10:10;8.25;;;3.60;;
47153;SDS011;32907;41.412;2.164;2023-03-01T08:12:38;3.70;;;2.92;;
47153;SDS011;32907;41.412;2.164;2023-03-01T08:15:06;4.15;;;3.00;;
47153;SDS011;32907;41.412;2.164;2023-03-01T08:17:35;6.30;;;3.17;;
47153;SDS011;32907;41.412;2.164;2023-03-01T08:20:03;6.32;;;3.03;;
47153;SDS011;32907;41.412;2.164;2023-03-01T08:22:34;8.40;;;3.60;;
47153;SDS011;32907;41.412;2.164;2023-03-01T08:25:02;6.68;;;3.65;;
47153;SDS011;32907;41.412;2.164;2023-03-01T08:27:29;6.82;;;3.92;;
47153;SDS011;32907;41.412;2.164;2023-03-01T08:29:59;7.68;;;3.90;;
47153;SDS011;32907;41.412;2.164;2023-03-01T08:32:27;14.32;;;5.00;;
47153;SDS011;32907;41.412;2.164;2023-03-01T08:34:55;10.23;;;4.07;;
47153;SDS011;32907;41.412;2.164;2023-03-01T08:37:23;8.05;;;5.22;;
47153;SDS011;32907;41.412;2.164;2023-03-01T08:39:51;11.82;;;5.13;;
47153;SDS011;32907;41.412;2.164;2023-03-01T08:42:18;9.35;;;4.30;;
47153;SDS011;32907;41.412;2.164;2023-03-01T08:44:46;7.20;;;4.10;;
47153;SDS011;32907;41.412;2.164;2023-03-01T08:47:14;9.27;;;4.60;;
47153;SDS011;32907;41.412;2.164;2023-03-01T08:49:42;7.82;;;4.65;;
47153;SDS011;32907;41.412;2.164;2023-03-01T08:52:10;6.45;;;3.83;;
47153;SDS011;32907;41.412;2.164;2023-03-01T08:54:38;10.55;;;4.70;;
47153;SDS011;32907;41.412;2.164;2023-03-01T08:57:06;9.68;;;4.57;;
47153;SDS011;32907;41.412;2.164;2023-03-01T08:59:36;6.55;;;5.20;;
47153;SDS011;32907;41.412;2.164;2023-03-01T09:02:04;8.88;;;4.50;;
47153;SDS011;32907;41.412;2.164;2023-03-01T09:04:43;8.20;;;4.28;;
47153;SDS011;32907;41.412;2.164;2023-03-01T09:07:11;8.63;;;5.05;;
47153;SDS011;32907;41.412;2.164;2023-03-01T09:09:39;6.78;;;4.75;;
47153;SDS011;32907;41.412;2.164;2023-03-01T09:12:07;6.75;;;4.10;;
47153;SDS011;32907;41.412;2.164;2023-03-01T09:14:35;7.80;;;4.10;;
47153;SDS011;32907;41.412;2.164;2023-03-01T09:17:05;7.85;;;4.20;;
47153;SDS011;32907;41.412;2.164;2023-03-01T09:19:33;15.05;;;5.47;;
47153;SDS011;32907;41.412;2.164;2023-03-01T09:22:02;8.23;;;4.20;;
47153;SDS011;32907;41.412;2.164;2023-03-01T09:24:31;9.10;;;4.78;;
47153;SDS011;32907;41.412;2.164;2023-03-01T09:26:59;8.80;;;4.22;;
47153;SDS011;32907;41.412;2.164;2023-03-01T09:29:28;6.07;;;3.85;;
47153;SDS011;32907;41.412;2.164;2023-03-01T09:31:56;7.25;;;4.30;;
47153;SDS011;32907;41.412;2.164;2023-03-01T09:34:25;10.80;;;4.55;;
47153;SDS011;32907;41.412;2.164;2023-03-01T09:36:53;6.45;;;4.03;;
47153;SDS011;32907;41.412;2.164;2023-03-01T09:39:21;6.90;;;4.40;;
47153;SDS011;32907;41.412;2.164;2023-03-01T09:42:00;9.20;;;5.32;;
47153;SDS011;32907;41.412;2.164;2023-03-01T09:47:26;8.18;;;4.97;;
47153;SDS011;32907;41.412;2.164;2023-03-01T09:50:11;8.95;;;5.05;;
47153;SDS011;32907;41.412;2.164;2023-03-01T09:52:42;7.25;;;4.88;;
47153;SDS011;32907;41.412;2.164;2023-03-01T09:55:14;7.20;;;4.78;;
47153;SDS011;32907;41.412;2.164;2023-03-01T10:02:54;5.63;;;4.07;;
47153;SDS011;32907;41.412;2.164;2023-03-01T10:05:44;7.75;;;3.90;;
47153;SDS011;32907;41.412;2.164;2023-03-01T10:08:27;8.50;;;4.50;;
47153;SDS011;32907;41.412;2.164;2023-03-01T10:11:00;8.63;;;4.78;;
47153;SDS011;32907;41.412;2.164;2023-03-01T10:14:13;6.45;;;4.68;;
47153;SDS011;32907;41.412;2.164;2023-03-01T10:16:34;9.15;;;4.03;;
47153;SDS011;32907;41.412;2.164;2023-03-01T10:19:12;8.45;;;4.60;;
47153;SDS011;32907;41.412;2.164;2023-03-01T10:21:46;8.23;;;5.00;;
47153;SDS011;32907;41.412;2.164;2023-03-01T10:24:15;8.05;;;4.97;;
47153;SDS011;32907;41.412;2.164;2023-03-01T10:27:00;9.85;;;4.88;;
47153;SDS011;32907;41.412;2.164;2023-03-01T10:32:22;8.95;;;7.50;;
47153;SDS011;32907;41.412;2.164;2023-03-01T10:34:51;11.52;;;7.45;;
47153;SDS011;32907;41.412;2.164;2023-03-01T10:37:20;7.97;;;5.72;;
47153;SDS011;32907;41.412;2.164;2023-03-01T10:39:54;9.48;;;5.30;;
47153;SDS011;32907;41.412;2.164;2023-03-01T10:42:38;5.68;;;4.57;;
47153;SDS011;32907;41.412;2.164;2023-03-01T10:45:48;8.65;;;4.50;;
47153;SDS011;32907;41.412;2.164;2023-03-01T10:48:12;5.95;;;4.25;;
47153;SDS011;32907;41.412;2.164;2023-03-01T10:50:44;6.82;;;4.97;;
47153;SDS011;32907;41.412;2.164;2023-03-01T10:55:58;9.90;;;6.00;;
47153;SDS011;32907;41.412;2.164;2023-03-01T10:58:32;10.82;;;5.20;;
47153;SDS011;32907;41.412;2.164;2023-03-01T11:01:04;6.80;;;4.57;;
47153;SDS011;32907;41.412;2.164;2023-03-01T11:03:37;7.53;;;3.80;;
47153;SDS011;32907;41.412;2.164;2023-03-01T11:08:43;6.43;;;3.28;;
47153;SDS011;32907;41.412;2.164;2023-03-01T11:14:03;4.90;;;3.10;;
47153;SDS011;32907;41.412;2.164;2023-03-01T11:17:05;5.75;;;3.78;;
47153;SDS011;32907;41.412;2.164;2023-03-01T11:19:41;6.45;;;3.30;;
47153;SDS011;32907;41.412;2.164;2023-03-01T11:22:20;7.15;;;3.65;;
47153;SDS011;32907;41.412;2.164;2023-03-01T11:24:51;5.45;;;3.35;;
47153;SDS011;32907;41.412;2.164;2023-03-01T11:27:40;6.65;;;3.92;;
47153;SDS011;32907;41.412;2.164;2023-03-01T11:36:00;7.10;;;2.80;;
47153;SDS011;32907;41.412;2.164;2023-03-01T11:38:34;6.63;;;3.13;;
47153;SDS011;32907;41.412;2.164;2023-03-01T11:43:51;7.03;;;3.40;;
47153;SDS011;32907;41.412;2.164;2023-03-01T12:09:09;5.85;;;4.00;;
47153;SDS011;32907;41.412;2.164;2023-03-01T12:14:36;9.60;;;4.95;;
47153;SDS011;32907;41.412;2.164;2023-03-01T12:17:20;4.95;;;3.47;;
47153;SDS011;32907;41.412;2.164;2023-03-01T12:51:38;8.25;;;3.90;;
47153;SDS011;32907;41.412;2.164;2023-03-01T12:54:20;9.82;;;4.28;;
47153;SDS011;32907;41.412;2.164;2023-03-01T12:56:56;6.72;;;3.97;;
47153;SDS011;32907;41.412;2.164;2023-03-01T13:02:22;14.10;;;7.70;;
47153;SDS011;32907;41.412;2.164;2023-03-01T13:10:20;10.32;;;6.43;;
47153;SDS011;32907;41.412;2.164;2023-03-01T13:15:34;5.40;;;3.53;;
47153;SDS011;32907;41.412;2.164;2023-03-01T13:20:50;6.60;;;3.35;;
47153;SDS011;32907;41.412;2.164;2023-03-01T13:23:26;6.88;;;3.78;;
47153;SDS011;32907;41.412;2.164;2023-03-01T13:33:50;10.40;;;6.43;;
47153;SDS011;32907;41.412;2.164;2023-03-01T13:39:18;9.25;;;5.50;;
47153;SDS011;32907;41.412;2.164;2023-03-01T13:42:00;9.07;;;6.53;;
47153;SDS011;32907;41.412;2.164;2023-03-01T13:44:35;10.95;;;6.75;;
47153;SDS011;32907;41.412;2.164;2023-03-01T13:49:48;8.38;;;6.20;;
47153;SDS011;32907;41.412;2.164;2023-03-01T13:58:22;7.90;;;4.60;;
47153;SDS011;32907;41.412;2.164;2023-03-01T14:03:26;4.90;;;3.35;;
47153;SDS011;32907;41.412;2.164;2023-03-01T14:06:03;5.25;;;3.47;;
47153;SDS011;32907;41.412;2.164;2023-03-01T14:08:43;6.45;;;3.75;;
47153;SDS011;32907;41.412;2.164;2023-03-01T14:13:49;7.18;;;3.72;;
47153;SDS011;32907;41.412;2.164;2023-03-01T14:19:35;7.03;;;4.20;;
47153;SDS011;32907;41.412;2.164;2023-03-01T14:24:54;7.25;;;5.35;;
47153;SDS011;32907;41.412;2.164;2023-03-01T14:27:30;7.18;;;4.90;;
47153;SDS011;32907;41.412;2.164;2023-03-01T14:30:04;9.10;;;5.25;;
47153;SDS011;32907;41.412;2.164;2023-03-01T14:32:42;8.57;;;5.95;;
47153;SDS011;32907;41.412;2.164;2023-03-01T14:35:24;9.02;;;5.05;;
47153;SDS011;32907;41.412;2.164;2023-03-01T14:37:54;8.68;;;4.82;;
47153;SDS011;32907;41.412;2.164;2023-03-01T14:42:59;10.55;;;5.85;;
47153;SDS011;32907;41.412;2.164;2023-03-01T14:45:29;8.68;;;5.85;;
47153;SDS011;32907;41.412;2.164;2023-03-01T14:48:01;11.75;;;6.43;;
47153;SDS011;32907;41.412;2.164;2023-03-01T14:50:32;10.73;;;6.07;;
47153;SDS011;32907;41.412;2.164;2023-03-01T14:53:03;8.65;;;5.65;;
47153;SDS011;32907;41.412;2.164;2023-03-01T14:55:36;9.50;;;5.32;;
47153;SDS011;32907;41.412;2.164;2023-03-01T14:58:12;8.80;;;5.57;;
47153;SDS011;32907;41.412;2.164;2023-03-01T15:00:52;8.23;;;5.07;;
47153;SDS011;32907;41.412;2.164;2023-03-01T15:03:35;8.20;;;6.00;;
47153;SDS011;32907;41.412;2.164;2023-03-01T15:06:07;10.43;;;6.47;;
47153;SDS011;32907;41.412;2.164;2023-03-01T15:08:36;11.15;;;6.10;;
47153;SDS011;32907;41.412;2.164;2023-03-01T15:13:52;9.13;;;6.70;;
47153;SDS011;32907;41.412;2.164;2023-03-01T15:16:23;9.32;;;6.13;;
47153;SDS011;32907;41.412;2.164;2023-03-01T15:19:04;9.98;;;7.03;;
47153;SDS011;32907;41.412;2.164;2023-03-01T15:21:35;8.77;;;6.53;;
47153;SDS011;32907;41.412;2.164;2023-03-01T15:26:39;10.55;;;5.80;;
47153;SDS011;32907;41.412;2.164;2023-03-01T15:29:19;9.55;;;5.70;;
47153;SDS011;32907;41.412;2.164;2023-03-01T15:32:03;7.03;;;5.35;;
47153;SDS011;32907;41.412;2.164;2023-03-01T15:34:33;7.85;;;5.25;;
47153;SDS011;32907;41.412;2.164;2023-03-01T15:37:05;6.63;;;4.72;;
47153;SDS011;32907;41.412;2.164;2023-03-01T15:39:37;10.15;;;5.68;;
47153;SDS011;32907;41.412;2.164;2023-03-01T15:42:36;7.43;;;5.32;;
47153;SDS011;32907;41.412;2.164;2023-03-01T15:47:35;6.10;;;5.00;;
47153;SDS011;32907;41.412;2.164;2023-03-01T15:50:18;9.98;;;5.30;;
47153;SDS011;32907;41.412;2.164;2023-03-01T15:52:49;6.10;;;4.78;;
47153;SDS011;32907;41.412;2.164;2023-03-01T15:55:19;10.07;;;5.38;;
47153;SDS011;32907;41.412;2.164;2023-03-01T15:57:57;8.23;;;5.63;;
47153;SDS011;32907;41.412;2.164;2023-03-01T16:00:41;9.80;;;5.78;;
47153;SDS011;32907;41.412;2.164;2023-03-01T16:03:25;17.88;;;8.55;;
47153;SDS011;32907;41.412;2.164;2023-03-01T16:05:56;14.02;;;7.68;;
47153;SDS011;32907;41.412;2.164;2023-03-01T16:08:27;55.50;;;27.48;;
47153;SDS011;32907;41.412;2.164;2023-03-01T16:10:55;53.45;;;26.77;;
47153;SDS011;32907;41.412;2.164;2023-03-01T16:13:27;32.42;;;17.38;;
47153;SDS011;32907;41.412;2.164;2023-03-01T16:15:56;23.75;;;12.60;;
47153;SDS011;32907;41.412;2.164;2023-03-01T16:18:24;18.13;;;9.18;;
47153;SDS011;32907;41.412;2.164;2023-03-01T16:20:52;13.75;;;8.65;;
47153;SDS011;32907;41.412;2.164;2023-03-01T16:23:45;12.98;;;7.70;;
47153;SDS011;32907;41.412;2.164;2023-03-01T16:26:13;9.30;;;6.68;;
47153;SDS011;32907;41.412;2.164;2023-03-01T16:28:47;11.20;;;6.05;;
47153;SDS011;32907;41.412;2.164;2023-03-01T16:31:19;12.38;;;6.00;;
47153;SDS011;32907;41.412;2.164;2023-03-01T16:33:48;9.23;;;5.57;;
47153;SDS011;32907;41.412;2.164;2023-03-01T16:36:17;8.70;;;5.47;;
47153;SDS011;32907;41.412;2.164;2023-03-01T16:38:47;9.35;;;6.03;;
47153;SDS011;32907;41.412;2.164;2023-03-01T16:41:18;9.13;;;5.53;;
47153;SDS011;32907;41.412;2.164;2023-03-01T16:43:47;7.40;;;5.43;;
47153;SDS011;32907;41.412;2.164;2023-03-01T16:46:17;6.72;;;5.05;;
47153;SDS011;32907;41.412;2.164;2023-03-01T16:48:50;7.40;;;5.80;;
47153;SDS011;32907;41.412;2.164;2023-03-01T16:51:19;7.43;;;5.60;;
47153;SDS011;32907;41.412;2.164;2023-03-01T16:53:49;8.52;;;5.07;;
47153;SDS011;32907;41.412;2.164;2023-03-01T16:56:19;9.88;;;4.65;;
47153;SDS011;32907;41.412;2.164;2023-03-01T16:58:47;7.10;;;5.00;;
47153;SDS011;32907;41.412;2.164;2023-03-01T17:01:16;8.57;;;5.43;;
47153;SDS011;32907;41.412;2.164;2023-03-01T17:03:46;8.02;;;5.53;;
47153;SDS011;32907;41.412;2.164;2023-03-01T17:06:17;14.93;;;5.47;;
47153;SDS011;32907;41.412;2.164;2023-03-01T17:08:47;7.93;;;5.47;;
47153;SDS011;32907;41.412;2.164;2023-03-01T17:11:16;7.20;;;5.03;;
47153;SDS011;32907;41.412;2.164;2023-03-01T17:13:46;7.20;;;5.03;;
47153;SDS011;32907;41.412;2.164;2023-03-01T17:16:15;7.47;;;5.35;;
47153;SDS011;32907;41.412;2.164;2023-03-01T17:18:46;6.57;;;5.20;;
47153;SDS011;32907;41.412;2.164;2023-03-01T17:21:14;7.07;;;5.03;;
47153;SDS011;32907;41.412;2.164;2023-03-01T17:23:43;9.80;;;5.40;;
47153;SDS011;32907;41.412;2.164;2023-03-01T17:26:12;11.00;;;5.63;;
47153;SDS011;32907;41.412;2.164;2023-03-01T17:28:40;8.65;;;5.97;;
47153;SDS011;32907;41.412;2.164;2023-03-01T17:31:10;8.40;;;5.85;;
47153;SDS011;32907;41.412;2.164;2023-03-01T17:33:38;8.30;;;5.10;;
47153;SDS011;32907;41.412;2.164;2023-03-01T17:36:07;9.88;;;5.28;;
47153;SDS011;32907;41.412;2.164;2023-03-01T17:38:35;7.63;;;5.10;;
47153;SDS011;32907;41.412;2.164;2023-03-01T17:41:06;7.65;;;5.32;;
47153;SDS011;32907;41.412;2.164;2023-03-01T17:43:34;6.30;;;5.10;;
47153;SDS011;32907;41.412;2.164;2023-03-01T17:46:02;7.45;;;5.30;;
47153;SDS011;32907;41.412;2.164;2023-03-01T17:48:31;6.55;;;4.70;;